createdAt,value
2023-03-21T00:00:45.538Z,82.27
2023-03-21T00:03:12.460Z,82.29
2023-03-21T00:05:43.243Z,82.09
2023-03-21T00:08:09.972Z,81.97
2023-03-21T00:10:43.471Z,81.74
2023-03-21T00:13:13.362Z,81.89
2023-03-21T00:16:03.725Z,81.95
2023-03-21T00:18:32.154Z,82.53
2023-03-21T00:21:29.365Z,82.64
2023-03-21T00:23:47.761Z,82.87
2023-03-21T00:26:15.516Z,83.06
2023-03-21T00:28:43.331Z,82.99
2023-03-21T00:31:10.604Z,82.84
2023-03-21T00:33:39.578Z,83.14
2023-03-21T00:36:07.693Z,83.15
2023-03-21T00:38:35.061Z,82.83
2023-03-21T00:41:18.933Z,82.78
2023-03-21T00:43:52.022Z,82.95
2023-03-21T00:46:19.474Z,83.18
2023-03-21T00:48:46.197Z,83.36
2023-03-21T00:51:15.693Z,83.55
2023-03-21T00:53:42.877Z,83.29
2023-03-21T00:56:09.760Z,83.22
2023-03-21T00:58:36.507Z,83.16
2023-03-21T01:01:04.506Z,83.29
2023-03-21T01:03:31.259Z,83.21
2023-03-21T01:06:05.050Z,83.30
2023-03-21T01:08:48.563Z,83.58
2023-03-21T01:11:21.008Z,83.41
2023-03-21T01:13:54.859Z,83.16
2023-03-21T01:16:27.488Z,83.66
2023-03-21T01:18:54.210Z,83.47
2023-03-21T01:21:20.914Z,83.58
2023-03-21T01:23:48.029Z,83.65
2023-03-21T01:26:15.438Z,83.84
2023-03-21T01:28:43.347Z,83.92
2023-03-21T01:31:13.264Z,83.95
2023-03-21T01:33:40.010Z,83.71
2023-03-21T01:36:12.985Z,83.75
2023-03-21T01:38:41.705Z,83.72
2023-03-21T01:41:20.074Z,83.71
2023-03-21T01:43:47.375Z,83.71
2023-03-21T01:46:47.810Z,83.83
2023-03-21T01:49:26.220Z,83.97
2023-03-21T01:52:03.641Z,84.15
2023-03-21T01:54:41.217Z,84.14
2023-03-21T01:57:16.886Z,84.04
2023-03-21T01:59:46.414Z,83.87
2023-03-21T02:02:27.167Z,83.80
2023-03-21T02:04:58.273Z,83.85
2023-03-21T02:07:29.411Z,83.94
2023-03-21T02:09:56.556Z,83.81
2023-03-21T02:12:23.290Z,84.13
2023-03-21T02:14:51.816Z,84.06
2023-03-21T02:17:43.632Z,84.23
2023-03-21T02:20:12.977Z,84.12
2023-03-21T02:22:52.784Z,83.90
2023-03-21T02:25:49.835Z,84.24
2023-03-21T02:28:33.016Z,84.16
2023-03-21T02:31:10.932Z,84.23
2023-03-21T02:34:15.520Z,83.71
2023-03-21T02:36:59.132Z,84.01
2023-03-21T02:39:34.736Z,84.06
2023-03-21T02:42:22.808Z,84.24
2023-03-21T02:45:11.387Z,84.13
2023-03-21T02:47:52.773Z,84.15
2023-03-21T02:50:45.713Z,84.46
2023-03-21T02:53:16.795Z,84.42
2023-03-21T02:55:44.957Z,84.29
2023-03-21T02:58:17.374Z,84.19
2023-03-21T03:00:46.124Z,84.22
2023-03-21T03:03:24.824Z,83.98
2023-03-21T03:06:01.214Z,83.92
2023-03-21T03:09:02.884Z,83.98
2023-03-21T03:11:39.289Z,84.16
2023-03-21T03:14:42.072Z,83.96
2023-03-21T03:17:28.281Z,83.99
2023-03-21T03:20:15.663Z,84.13
2023-03-21T03:22:47.439Z,84.27
2023-03-21T03:25:32.663Z,84.31
2023-03-21T03:28:09.461Z,84.34
2023-03-21T03:30:44.704Z,84.50
2023-03-21T03:33:17.135Z,84.46
2023-03-21T03:35:48.268Z,84.21
2023-03-21T03:38:23.090Z,84.13
2023-03-21T03:40:58.711Z,84.15
2023-03-21T03:43:33.054Z,84.10
2023-03-21T03:46:12.384Z,84.53
2023-03-21T03:48:52.199Z,84.23
2023-03-21T03:51:42.867Z,84.40
2023-03-21T03:54:14.390Z,84.50
2023-03-21T03:56:41.163Z,84.45
2023-03-21T03:59:08.131Z,84.50
2023-03-21T04:01:35.296Z,84.43
2023-03-21T04:04:12.565Z,84.50
2023-03-21T04:06:39.762Z,84.51
2023-03-21T04:09:19.293Z,84.69
2023-03-21T04:11:47.997Z,84.72
2023-03-21T04:14:15.379Z,84.67
2023-03-21T04:16:42.428Z,84.68
2023-03-21T04:19:09.420Z,84.99
2023-03-21T04:21:36.610Z,84.69
2023-03-21T04:24:03.667Z,84.74
2023-03-21T04:26:33.118Z,84.60
2023-03-21T04:29:03.510Z,84.43
2023-03-21T04:31:33.947Z,84.34
2023-03-21T04:34:02.559Z,84.48
2023-03-21T04:36:39.294Z,84.58
2023-03-21T04:39:12.309Z,84.45
2023-03-21T04:41:44.227Z,84.59
2023-03-21T04:44:12.237Z,84.16
2023-03-21T04:46:40.217Z,84.21
2023-03-21T04:49:07.771Z,84.65
2023-03-21T04:51:34.695Z,84.80
2023-03-21T04:54:01.565Z,84.81
2023-03-21T04:56:33.866Z,84.61
2023-03-21T04:59:03.861Z,84.80
2023-03-21T05:01:30.938Z,84.36
2023-03-21T05:04:02.300Z,84.60
2023-03-21T05:06:30.066Z,85.06
2023-03-21T05:09:01.611Z,84.89
2023-03-21T05:11:30.984Z,84.86
2023-03-21T05:13:59.071Z,84.65
2023-03-21T05:16:27.181Z,84.73
2023-03-21T05:18:55.592Z,85.04
2023-03-21T05:21:22.996Z,85.21
2023-03-21T05:23:55.397Z,85.13
2023-03-21T05:26:25.903Z,85.09
2023-03-21T05:28:52.602Z,84.86
2023-03-21T05:31:20.419Z,84.84
2023-03-21T05:33:47.841Z,85.04
2023-03-21T05:36:15.732Z,84.84
2023-03-21T05:38:45.682Z,84.77
2023-03-21T05:41:19.109Z,84.63
2023-03-21T05:43:45.918Z,85.09
2023-03-21T05:46:12.676Z,84.92
2023-03-21T05:48:39.805Z,84.73
2023-03-21T05:51:06.674Z,85.06
2023-03-21T05:53:33.316Z,85.22
2023-03-21T05:55:59.960Z,85.16
2023-03-21T05:58:26.588Z,84.98
2023-03-21T06:00:53.200Z,84.98
2023-03-21T06:03:19.792Z,85.43
2023-03-21T06:05:46.519Z,85.28
2023-03-21T06:08:13.177Z,85.09
2023-03-21T06:10:39.912Z,85.10
2023-03-21T06:13:06.549Z,85.26
2023-03-21T06:15:33.501Z,84.98
2023-03-21T06:18:00.144Z,85.23
2023-03-21T06:20:26.772Z,85.37
2023-03-21T06:22:53.379Z,85.32
2023-03-21T06:25:21.437Z,85.22
2023-03-21T06:27:48.113Z,85.00
2023-03-21T06:30:15.301Z,85.21
2023-03-21T06:32:41.966Z,84.90
2023-03-21T06:35:08.979Z,84.88
2023-03-21T06:37:35.617Z,85.35
2023-03-21T06:40:02.211Z,84.99
2023-03-21T06:42:30.116Z,85.05
2023-03-21T06:44:56.728Z,84.89
2023-03-21T06:47:23.325Z,84.72
2023-03-21T06:49:49.944Z,84.93
2023-03-21T06:52:16.528Z,85.00
2023-03-21T06:54:43.225Z,85.53
2023-03-21T06:57:10.296Z,85.56
2023-03-21T06:59:36.956Z,85.37
2023-03-21T07:02:03.587Z,85.28
2023-03-21T07:04:30.254Z,84.78
2023-03-21T07:06:57.184Z,85.02
2023-03-21T07:09:28.011Z,84.82
2023-03-21T07:11:54.679Z,84.99
2023-03-21T07:14:21.365Z,85.28
2023-03-21T07:16:48.020Z,85.52
2023-03-21T07:19:15.842Z,85.77
2023-03-21T07:21:42.486Z,85.64
2023-03-21T07:24:09.188Z,85.31
2023-03-21T07:26:35.842Z,84.68
2023-03-21T07:29:02.459Z,84.75
2023-03-21T07:31:29.653Z,85.09
2023-03-21T07:33:56.348Z,84.94
2023-03-21T07:36:23.218Z,85.48
2023-03-21T07:38:49.870Z,85.81
2023-03-21T07:43:48.082Z,85.46
2023-03-21T07:46:14.769Z,85.63
2023-03-21T07:48:41.396Z,85.64
2023-03-21T07:51:08.049Z,85.50
2023-03-21T07:53:34.687Z,85.54
2023-03-21T07:56:01.464Z,85.35
2023-03-21T07:58:28.605Z,85.57
2023-03-21T08:00:58.282Z,85.60
2023-03-21T08:03:26.484Z,85.61
2023-03-21T08:05:53.190Z,85.45
2023-03-21T08:08:19.879Z,85.15
2023-03-21T08:10:46.652Z,85.46
2023-03-21T08:13:13.544Z,85.72
2023-03-21T08:15:42.348Z,85.68
2023-03-21T08:18:10.728Z,86.00
2023-03-21T08:20:38.158Z,85.80
2023-03-21T08:23:04.881Z,85.43
2023-03-21T08:25:32.196Z,85.88
2023-03-21T08:27:59.266Z,85.59
2023-03-21T08:30:28.277Z,85.49
2023-03-21T08:33:01.326Z,85.41
2023-03-21T08:35:29.774Z,85.81
2023-03-21T08:37:56.401Z,85.45
2023-03-21T08:40:23.161Z,85.79
2023-03-21T08:42:49.910Z,85.72
2023-03-21T08:45:17.947Z,86.11
2023-03-21T08:47:45.342Z,85.73
2023-03-21T08:50:15.630Z,86.50
2023-03-21T08:52:42.367Z,86.24
2023-03-21T08:55:09.779Z,86.79
2023-03-21T08:57:36.773Z,86.74
2023-03-21T09:00:15.005Z,86.82
2023-03-21T09:02:42.831Z,86.59
2023-03-21T09:05:12.144Z,86.40
2023-03-21T09:07:40.006Z,86.40
2023-03-21T09:10:20.259Z,86.53
2023-03-21T09:12:49.809Z,87.30
2023-03-21T09:15:17.979Z,86.98
2023-03-21T09:17:50.089Z,87.30
2023-03-21T09:20:20.961Z,87.39
2023-03-21T09:22:49.635Z,87.43
2023-03-21T09:25:16.781Z,87.62
2023-03-21T09:27:45.738Z,87.23
2023-03-21T09:30:16.346Z,86.66
2023-03-21T09:32:45.680Z,86.42
2023-03-21T09:35:12.909Z,85.98
2023-03-21T09:37:42.383Z,85.98
2023-03-21T09:40:21.460Z,85.31
2023-03-21T09:43:07.394Z,84.45
2023-03-21T09:45:48.186Z,84.90
2023-03-21T09:48:37.643Z,84.28
2023-03-21T09:51:15.887Z,83.80
2023-03-21T09:53:46.998Z,83.77
2023-03-21T09:56:14.067Z,83.57
2023-03-21T09:58:54.721Z,83.54
2023-03-21T10:01:28.353Z,82.89
2023-03-21T10:03:56.894Z,82.69
2023-03-21T10:06:29.526Z,81.96
2023-03-21T10:09:09.313Z,81.75
2023-03-21T10:11:49.173Z,80.97
2023-03-21T10:14:24.352Z,80.70
2023-03-21T10:17:22.509Z,80.71
2023-03-21T10:20:12.061Z,79.97
2023-03-21T10:22:39.302Z,79.34
2023-03-21T10:25:07.810Z,78.49
2023-03-21T10:27:37.096Z,78.58
2023-03-21T10:30:07.582Z,79.24
2023-03-21T10:32:35.945Z,78.73
2023-03-21T10:35:05.094Z,78.33
2023-03-21T10:37:32.671Z,78.77
2023-03-21T10:39:59.696Z,78.61
2023-03-21T10:42:30.947Z,78.03
2023-03-21T10:44:58.738Z,77.05
2023-03-21T10:47:30.085Z,77.12
2023-03-21T10:50:08.040Z,76.58
2023-03-21T10:52:38.370Z,76.97
2023-03-21T10:55:17.577Z,76.31
2023-03-21T10:57:46.819Z,75.95
2023-03-21T11:00:27.642Z,75.37
2023-03-21T11:02:54.960Z,75.41
2023-03-21T11:05:24.435Z,75.30
2023-03-21T11:08:02.923Z,74.56
2023-03-21T11:11:03.105Z,73.23
2023-03-21T11:13:41.460Z,73.26
2023-03-21T11:16:19.338Z,73.54
2023-03-21T11:18:51.381Z,72.76
2023-03-21T11:21:18.185Z,72.32
2023-03-21T11:23:48.736Z,72.07
2023-03-21T11:26:36.959Z,71.70
2023-03-21T11:29:37.180Z,72.01
2023-03-21T11:32:14.749Z,71.54
2023-03-21T11:34:50.642Z,70.90
2023-03-21T11:37:22.091Z,71.31
2023-03-21T11:39:55.499Z,71.07
2023-03-21T11:42:32.205Z,70.60
2023-03-21T11:45:14.061Z,70.26
2023-03-21T11:47:40.882Z,70.83
2023-03-21T11:50:45.008Z,70.09
2023-03-21T11:53:40.518Z,70.19
2023-03-21T11:56:09.733Z,70.24
2023-03-21T11:58:49.807Z,70.02
2023-03-21T12:01:49.604Z,70.40
2023-03-21T12:04:34.705Z,70.20
2023-03-21T12:07:13.509Z,70.03
2023-03-21T12:09:43.015Z,69.51
2023-03-21T12:12:38.359Z,69.37
2023-03-21T12:15:11.956Z,70.08
2023-03-21T12:18:00.428Z,69.69
2023-03-21T12:20:44.619Z,69.71
2023-03-21T12:23:35.769Z,69.93
2023-03-21T12:26:02.369Z,69.60
2023-03-21T12:28:50.958Z,69.37
2023-03-21T12:31:41.113Z,68.95
2023-03-21T12:34:26.153Z,68.64
2023-03-21T12:37:14.389Z,68.39
2023-03-21T12:39:41.214Z,68.40
2023-03-21T12:42:13.497Z,67.92
2023-03-21T12:44:45.996Z,67.73
2023-03-21T12:47:20.829Z,67.65
2023-03-21T12:49:59.739Z,67.80
2023-03-21T12:52:32.626Z,67.65
2023-03-21T12:55:07.451Z,66.57
2023-03-21T12:57:44.610Z,66.12
2023-03-21T13:00:20.160Z,66.81
2023-03-21T13:02:55.515Z,67.17
2023-03-21T13:05:28.030Z,67.25
2023-03-21T13:08:04.424Z,66.64
2023-03-21T13:10:32.613Z,66.82
2023-03-21T13:13:10.035Z,66.67
2023-03-21T13:15:50.682Z,66.23
2023-03-21T13:18:29.862Z,65.63
2023-03-21T13:20:58.640Z,66.11
2023-03-21T13:23:33.040Z,65.86
2023-03-21T13:25:59.692Z,66.17
2023-03-21T13:28:29.441Z,66.40
2023-03-21T13:31:19.785Z,66.21
2023-03-21T13:33:51.252Z,66.85
2023-03-21T13:36:30.048Z,65.52
2023-03-21T13:39:02.990Z,65.34
2023-03-21T13:41:42.895Z,65.47
2023-03-21T13:44:18.633Z,65.83
2023-03-21T13:46:54.910Z,65.60
2023-03-21T13:49:34.321Z,65.83
2023-03-21T13:52:08.925Z,65.65
2023-03-21T13:54:57.537Z,65.69
2023-03-21T13:57:30.589Z,65.50
2023-03-21T14:00:27.838Z,65.55
2023-03-21T14:03:01.181Z,65.82
2023-03-21T14:05:28.886Z,65.47
2023-03-21T14:08:12.416Z,65.53
2023-03-21T14:10:53.873Z,65.24
2023-03-21T14:13:24.797Z,65.41
2023-03-21T14:15:56.874Z,65.58
2023-03-21T14:18:35.386Z,65.50
2023-03-21T14:21:24.328Z,65.59
2023-03-21T14:24:12.528Z,65.58
2023-03-21T14:26:48.861Z,65.37
2023-03-21T14:29:31.606Z,64.62
2023-03-21T14:32:00.333Z,64.53
2023-03-21T14:34:29.820Z,64.99
2023-03-21T14:36:58.944Z,65.18
2023-03-21T14:39:33.670Z,64.86
2023-03-21T14:42:06.445Z,64.75
2023-03-21T14:44:54.830Z,64.93
2023-03-21T14:47:26.125Z,65.02
2023-03-21T14:49:53.130Z,65.39
2023-03-21T14:52:34.202Z,65.28
2023-03-21T14:55:03.843Z,65.36
2023-03-21T14:57:33.890Z,65.23
2023-03-21T15:00:14.571Z,65.19
2023-03-21T15:02:43.295Z,65.20
2023-03-21T15:05:17.209Z,65.18
2023-03-21T15:07:54.266Z,65.75
2023-03-21T15:10:21.277Z,65.31
2023-03-21T15:12:56.566Z,65.10
2023-03-21T15:15:27.298Z,65.46
2023-03-21T15:17:56.910Z,65.04
2023-03-21T15:20:28.674Z,65.77
2023-03-21T15:23:00.713Z,65.91
2023-03-21T15:25:31.094Z,65.43
2023-03-21T15:27:57.725Z,65.69
2023-03-21T15:30:28.072Z,65.52
2023-03-21T15:33:05.060Z,65.59
2023-03-21T15:35:39.951Z,65.42
2023-03-21T15:38:07.077Z,65.67
2023-03-21T15:40:35.719Z,65.53
2023-03-21T15:43:14.499Z,66.12
2023-03-21T15:45:55.491Z,65.51
2023-03-21T15:48:29.149Z,65.81
2023-03-21T15:50:55.730Z,65.60
2023-03-21T15:53:25.023Z,65.97
2023-03-21T15:55:57.676Z,66.10
2023-03-21T15:58:27.608Z,66.18
2023-03-21T16:01:01.711Z,66.21
2023-03-21T16:03:35.788Z,66.22
2023-03-21T16:06:11.426Z,66.15
2023-03-21T16:08:52.965Z,66.40
2023-03-21T16:11:26.098Z,66.37
2023-03-21T16:13:54.033Z,66.17
2023-03-21T16:16:23.664Z,66.07
2023-03-21T16:18:51.725Z,66.31
2023-03-21T16:21:21.378Z,66.48
2023-03-21T16:23:48.571Z,66.13
2023-03-21T16:26:27.669Z,66.54
2023-03-21T16:28:54.549Z,66.11
2023-03-21T16:31:24.356Z,66.23
2023-03-21T16:33:51.425Z,66.07
2023-03-21T16:36:24.681Z,65.93
2023-03-21T16:38:55.369Z,65.77
2023-03-21T16:41:26.890Z,66.13
2023-03-21T16:43:54.163Z,66.34
2023-03-21T16:46:26.480Z,66.25
2023-03-21T16:48:55.888Z,66.09
2023-03-21T16:51:31.545Z,66.55
2023-03-21T16:53:58.530Z,66.64
2023-03-21T16:56:29.378Z,66.69
2023-03-21T16:58:57.885Z,66.58
2023-03-21T17:01:29.953Z,66.16
2023-03-21T17:04:00.449Z,66.72
2023-03-21T17:06:29.493Z,67.26
2023-03-21T17:08:57.518Z,67.25
2023-03-21T17:11:27.160Z,67.13
2023-03-21T17:13:54.961Z,67.02
2023-03-21T17:16:26.565Z,67.20
2023-03-21T17:18:53.986Z,67.69
2023-03-21T17:21:21.993Z,67.00
2023-03-21T17:23:50.322Z,67.71
2023-03-21T17:26:21.214Z,68.00
2023-03-21T17:28:47.873Z,67.62
2023-03-21T17:31:17.484Z,67.47
2023-03-21T17:33:44.799Z,67.97
2023-03-21T17:36:17.232Z,68.50
2023-03-21T17:38:47.786Z,67.62
2023-03-21T17:41:18.230Z,68.08
2023-03-21T17:43:45.108Z,67.80
2023-03-21T17:46:14.339Z,68.23
2023-03-21T17:48:41.520Z,68.51
2023-03-21T17:51:12.753Z,68.31
2023-03-21T17:53:39.389Z,68.21
2023-03-21T17:56:06.875Z,68.57
2023-03-21T17:58:33.566Z,68.72
2023-03-21T18:01:00.366Z,68.72
2023-03-21T18:03:26.963Z,68.58
2023-03-21T18:05:53.613Z,68.93
2023-03-21T18:08:20.291Z,69.01
2023-03-21T18:10:46.920Z,68.71
2023-03-21T18:13:13.548Z,69.32
2023-03-21T18:15:44.038Z,69.60
2023-03-21T18:18:12.027Z,68.95
2023-03-21T18:20:52.122Z,69.41
2023-03-21T18:23:19.928Z,69.54
2023-03-21T18:25:47.041Z,69.25
2023-03-21T18:28:13.994Z,69.39
2023-03-21T18:31:09.580Z,69.61
2023-03-21T18:33:28.573Z,69.87
2023-03-21T18:35:59.601Z,70.05
2023-03-21T18:38:29.529Z,69.79
2023-03-21T18:40:56.788Z,70.03
2023-03-21T18:46:10.866Z,69.95
2023-03-21T18:48:37.480Z,70.44
2023-03-21T18:51:04.513Z,70.47
2023-03-21T18:53:31.575Z,70.47
2023-03-21T18:55:58.377Z,70.49
2023-03-21T18:58:25.523Z,70.50
2023-03-21T19:00:53.656Z,70.61
2023-03-21T19:03:35.408Z,70.61
2023-03-21T19:06:04.754Z,70.78
2023-03-21T19:08:31.957Z,70.88
2023-03-21T19:11:03.346Z,70.91
2023-03-21T19:13:33.717Z,70.98
2023-03-21T19:16:02.496Z,71.27
2023-03-21T19:18:50.108Z,71.23
2023-03-21T19:21:17.420Z,71.09
2023-03-21T19:24:20.790Z,71.26
2023-03-21T19:26:30.933Z,71.07
2023-03-21T19:28:57.643Z,71.36
2023-03-21T19:31:24.797Z,71.33
2023-03-21T19:33:51.864Z,71.20
2023-03-21T19:36:22.676Z,71.46
2023-03-21T19:38:50.532Z,71.50
2023-03-21T19:41:18.538Z,71.62
2023-03-21T19:43:54.157Z,71.90
2023-03-21T19:46:24.867Z,71.74
2023-03-21T19:48:56.154Z,71.95
2023-03-21T19:51:28.666Z,71.91
2023-03-21T19:53:56.304Z,71.90
2023-03-21T19:56:26.458Z,72.05
2023-03-21T19:58:54.065Z,72.18
2023-03-21T20:01:21.192Z,71.89
2023-03-21T20:03:48.033Z,72.37
2023-03-21T20:06:14.807Z,72.38
2023-03-21T20:11:28.213Z,72.82
2023-03-21T20:13:54.956Z,72.72
2023-03-21T20:16:21.786Z,72.78
2023-03-21T20:18:48.484Z,72.73
2023-03-21T20:21:17.876Z,72.65
2023-03-21T20:23:49.274Z,72.99
2023-03-21T20:26:16.845Z,72.80
2023-03-21T20:29:01.208Z,73.07
2023-03-21T20:31:32.614Z,73.12
2023-03-21T20:33:59.409Z,73.33
2023-03-21T20:36:39.971Z,73.25
2023-03-21T20:39:07.272Z,73.40
2023-03-21T20:41:33.988Z,73.20
2023-03-21T20:46:50.293Z,73.57
2023-03-21T20:49:17.073Z,73.51
2023-03-21T20:54:30.635Z,73.77
2023-03-21T20:56:57.340Z,73.78
2023-03-21T20:59:27.540Z,73.68
2023-03-21T21:01:57.271Z,74.13
2023-03-21T21:04:44.285Z,74.21
2023-03-21T21:07:15.928Z,74.18
2023-03-21T21:09:46.836Z,74.54
2023-03-21T21:12:15.139Z,74.73
2023-03-21T21:14:42.416Z,74.69
2023-03-21T21:17:30.800Z,74.72
2023-03-21T21:19:57.536Z,74.84
2023-03-21T21:22:24.218Z,74.64
2023-03-21T21:24:51.351Z,75.10
2023-03-21T21:27:18.052Z,75.05
2023-03-21T21:29:47.783Z,75.36
2023-03-21T21:32:17.033Z,75.19
2023-03-21T21:34:43.692Z,75.21
2023-03-21T21:37:10.717Z,75.47
2023-03-21T21:39:38.619Z,75.28
2023-03-21T21:42:05.398Z,75.52
2023-03-21T21:44:32.381Z,75.60
2023-03-21T21:46:59.319Z,75.68
2023-03-21T21:49:26.853Z,75.48
2023-03-21T21:51:53.742Z,75.61
2023-03-21T21:54:20.408Z,75.64
2023-03-21T21:56:54.225Z,75.52
2023-03-21T21:59:22.229Z,75.47
2023-03-21T22:01:51.353Z,75.64
2023-03-21T22:04:19.157Z,75.56
2023-03-21T22:06:47.608Z,75.53
2023-03-21T22:09:15.885Z,75.66
2023-03-21T22:11:42.763Z,75.57
2023-03-21T22:14:09.443Z,75.84
2023-03-21T22:16:36.414Z,75.91
2023-03-21T22:19:03.502Z,75.75
2023-03-21T22:21:30.238Z,76.15
2023-03-21T22:23:56.977Z,75.89
2023-03-21T22:26:23.749Z,76.08
2023-03-21T22:28:50.786Z,76.23
2023-03-21T22:31:17.490Z,76.05
2023-03-21T22:33:45.505Z,76.25
2023-03-21T22:36:12.554Z,76.25
2023-03-21T22:38:41.806Z,76.30
2023-03-21T22:41:08.602Z,76.32
2023-03-21T22:43:35.379Z,76.20
2023-03-21T22:46:03.215Z,76.10
2023-03-21T22:48:30.902Z,76.89
2023-03-21T22:50:59.138Z,76.79
2023-03-21T22:53:26.013Z,76.71
2023-03-21T22:55:52.695Z,76.32
2023-03-21T22:58:19.492Z,76.56
2023-03-21T23:00:47.281Z,76.75
2023-03-21T23:03:14.713Z,76.78
2023-03-21T23:05:42.146Z,76.88
2023-03-21T23:08:09.584Z,76.97
2023-03-21T23:10:41.103Z,77.46
2023-03-21T23:13:08.063Z,76.92
2023-03-21T23:15:34.704Z,76.98
2023-03-21T23:18:01.478Z,77.23
2023-03-21T23:20:28.172Z,76.94
2023-03-21T23:22:55.600Z,77.02
2023-03-21T23:25:22.355Z,77.12
2023-03-21T23:27:48.988Z,77.20
2023-03-21T23:30:15.767Z,77.21
2023-03-21T23:32:42.870Z,77.55
2023-03-21T23:35:10.336Z,77.73
2023-03-21T23:37:37.019Z,77.54
2023-03-21T23:40:06.417Z,77.51
2023-03-21T23:42:34.277Z,77.62
2023-03-21T23:45:01.203Z,77.61
2023-03-21T23:47:28.024Z,77.56
2023-03-21T23:49:54.944Z,77.78
2023-03-21T23:52:21.845Z,78.01
2023-03-21T23:54:48.465Z,78.08
2023-03-21T23:57:16.819Z,77.89
2023-03-21T23:59:43.962Z,77.96
